sensor_id;sensor_type;location;lat;lon;timestamp;pressure;altitude;pressure_sealevel;temperature;humidity
25664;BME280;13522;50.018;20.014;2023-04-25T00:02:35;97612.47;;;12.21;100.00
25664;BME280;13522;50.018;20.014;2023-04-25T00:05:49;97605.05;;;12.31;100.00
25664;BME280;13522;50.018;20.014;2023-04-25T00:09:03;97610.19;;;12.33;100.00
25664;BME280;13522;50.018;20.014;2023-04-25T00:12:17;97612.39;;;12.29;100.00
25664;BME280;13522;50.018;20.014;2023-04-25T00:15:29;97613.38;;;12.28;100.00
25664;BME280;13522;50.018;20.014;2023-04-25T00:18:43;97605.39;;;12.28;100.00
25664;BME280;13522;50.018;20.014;2023-04-25T00:21:58;97600.19;;;12.20;100.00
25664;BME280;13522;50.018;20.014;2023-04-25T00:25:12;97613.91;;;12.09;100.00
25664;BME280;13522;50.018;20.014;2023-04-25T00:28:24;97626.00;;;11.97;100.00
25664;BME280;13522;50.018;20.014;2023-04-25T00:31:37;97628.13;;;12.01;100.00
25664;BME280;13522;50.018;20.014;2023-04-25T00:34:49;97628.84;;;11.95;100.00
25664;BME280;13522;50.018;20.014;2023-04-25T00:38:02;97626.72;;;11.91;100.00
25664;BME280;13522;50.018;20.014;2023-04-25T00:41:14;97627.80;;;11.82;100.00
25664;BME280;13522;50.018;20.014;2023-04-25T00:44:28;97635.13;;;11.80;100.00
25664;BME280;13522;50.018;20.014;2023-04-25T00:47:41;97639.34;;;11.74;100.00
25664;BME280;13522;50.018;20.014;2023-04-25T00:50:55;97637.23;;;11.62;100.00
25664;BME280;13522;50.018;20.014;2023-04-25T00:54:09;97645.20;;;11.62;100.00
25664;BME280;13522;50.018;20.014;2023-04-25T00:57:21;97646.93;;;11.55;100.00
25664;BME280;13522;50.018;20.014;2023-04-25T01:00:34;97648.44;;;11.49;100.00
25664;BME280;13522;50.018;20.014;2023-04-25T01:03:47;97655.77;;;11.47;100.00
25664;BME280;13522;50.018;20.014;2023-04-25T01:07:02;97655.61;;;11.49;100.00
25664;BME280;13522;50.018;20.014;2023-04-25T01:10:15;97650.30;;;11.49;100.00
25664;BME280;13522;50.018;20.014;2023-04-25T01:13:27;97653.33;;;11.38;100.00
25664;BME280;13522;50.018;20.014;2023-04-25T01:16:39;97655.70;;;11.32;100.00
25664;BME280;13522;50.018;20.014;2023-04-25T01:19:52;97658.70;;;11.29;100.00
25664;BME280;13522;50.018;20.014;2023-04-25T01:23:04;97660.41;;;11.22;100.00
25664;BME280;13522;50.018;20.014;2023-04-25T01:26:17;97655.09;;;11.22;100.00
25664;BME280;13522;50.018;20.014;2023-04-25T01:29:30;97653.46;;;11.13;100.00
25664;BME280;13522;50.018;20.014;2023-04-25T01:32:43;97657.28;;;11.19;100.00
25664;BME280;13522;50.018;20.014;2023-04-25T01:35:56;97662.45;;;11.12;100.00
25664;BME280;13522;50.018;20.014;2023-04-25T01:39:09;97659.14;;;11.10;100.00
25664;BME280;13522;50.018;20.014;2023-04-25T01:42:23;97662.09;;;11.15;100.00
25664;BME280;13522;50.018;20.014;2023-04-25T01:45:36;97660.45;;;11.14;100.00
25664;BME280;13522;50.018;20.014;2023-04-25T01:48:50;97664.92;;;11.14;100.00
25664;BME280;13522;50.018;20.014;2023-04-25T01:52:02;97664.09;;;11.13;100.00
25664;BME280;13522;50.018;20.014;2023-04-25T01:55:15;97666.09;;;11.11;100.00
25664;BME280;13522;50.018;20.014;2023-04-25T01:58:29;97676.39;;;11.14;100.00
25664;BME280;13522;50.018;20.014;2023-04-25T02:02:00;97670.23;;;11.14;100.00
25664;BME280;13522;50.018;20.014;2023-04-25T02:05:13;97678.87;;;11.16;100.00
25664;BME280;13522;50.018;20.014;2023-04-25T02:08:26;97679.89;;;11.15;100.00
25664;BME280;13522;50.018;20.014;2023-04-25T02:11:38;97676.91;;;11.10;100.00
25664;BME280;13522;50.018;20.014;2023-04-25T02:15:03;97687.71;;;11.08;100.00
25664;BME280;13522;50.018;20.014;2023-04-25T02:18:22;97684.69;;;11.11;100.00
25664;BME280;13522;50.018;20.014;2023-04-25T02:21:34;97678.94;;;11.00;100.00
25664;BME280;13522;50.018;20.014;2023-04-25T02:24:46;97687.05;;;11.06;100.00
25664;BME280;13522;50.018;20.014;2023-04-25T02:27:59;97683.56;;;11.06;100.00
25664;BME280;13522;50.018;20.014;2023-04-25T02:31:12;97682.72;;;11.05;100.00
25664;BME280;13522;50.018;20.014;2023-04-25T02:34:24;97686.22;;;11.06;100.00
25664;BME280;13522;50.018;20.014;2023-04-25T02:37:39;97689.23;;;11.03;100.00
25664;BME280;13522;50.018;20.014;2023-04-25T02:40:51;97686.04;;;11.07;100.00
25664;BME280;13522;50.018;20.014;2023-04-25T02:44:04;97690.03;;;11.03;100.00
25664;BME280;13522;50.018;20.014;2023-04-25T02:47:16;97688.06;;;10.97;100.00
25664;BME280;13522;50.018;20.014;2023-04-25T02:50:29;97690.39;;;11.00;100.00
25664;BME280;13522;50.018;20.014;2023-04-25T02:53:41;97681.77;;;10.98;100.00
25664;BME280;13522;50.018;20.014;2023-04-25T02:57:10;97684.72;;;11.03;100.00
25664;BME280;13522;50.018;20.014;2023-04-25T03:00:22;97676.45;;;10.98;100.00
25664;BME280;13522;50.018;20.014;2023-04-25T03:03:35;97681.77;;;10.98;100.00
25664;BME280;13522;50.018;20.014;2023-04-25T03:06:47;97667.65;;;10.98;100.00
25664;BME280;13522;50.018;20.014;2023-04-25T03:09:59;97672.67;;;10.93;100.00
25664;BME280;13522;50.018;20.014;2023-04-25T03:13:13;97669.83;;;10.94;100.00
25664;BME280;13522;50.018;20.014;2023-04-25T03:16:25;97669.00;;;10.94;100.00
25664;BME280;13522;50.018;20.014;2023-04-25T03:19:38;97673.80;;;10.98;100.00
25664;BME280;13522;50.018;20.014;2023-04-25T03:22:50;97676.45;;;10.98;100.00
25664;BME280;13522;50.018;20.014;2023-04-25T03:26:02;97675.14;;;10.94;100.00
25664;BME280;13522;50.018;20.014;2023-04-25T03:29:15;97680.45;;;10.94;100.00
25664;BME280;13522;50.018;20.014;2023-04-25T03:32:30;97685.30;;;10.91;100.00
25664;BME280;13522;50.018;20.014;2023-04-25T03:35:42;97686.27;;;10.90;100.00
25664;BME280;13522;50.018;20.014;2023-04-25T03:38:56;97691.44;;;10.91;100.00
25664;BME280;13522;50.018;20.014;2023-04-25T03:42:09;97700.06;;;10.93;100.00
25664;BME280;13522;50.018;20.014;2023-04-25T03:45:22;97695.44;;;10.87;100.00
25664;BME280;13522;50.018;20.014;2023-04-25T03:48:35;97691.13;;;10.78;100.00
25664;BME280;13522;50.018;20.014;2023-04-25T03:51:48;97689.84;;;10.66;100.00
25664;BME280;13522;50.018;20.014;2023-04-25T03:55:01;97709.42;;;10.73;100.00
25664;BME280;13522;50.018;20.014;2023-04-25T03:58:15;97702.77;;;10.77;100.00
25664;BME280;13522;50.018;20.014;2023-04-25T04:01:29;97713.55;;;10.68;100.00
25664;BME280;13522;50.018;20.014;2023-04-25T04:04:42;97723.36;;;10.75;100.00
25664;BME280;13522;50.018;20.014;2023-04-25T04:07:55;97722.72;;;10.57;100.00
25664;BME280;13522;50.018;20.014;2023-04-25T04:11:09;97720.26;;;10.48;100.00
25664;BME280;13522;50.018;20.014;2023-04-25T04:14:22;97723.05;;;10.46;100.00
25664;BME280;13522;50.018;20.014;2023-04-25T04:17:34;97730.22;;;10.37;100.00
25664;BME280;13522;50.018;20.014;2023-04-25T04:20:47;97724.73;;;10.31;100.00
25664;BME280;13522;50.018;20.014;2023-04-25T04:24:00;97730.39;;;10.28;100.00
25664;BME280;13522;50.018;20.014;2023-04-25T04:27:14;97748.30;;;10.26;100.00
25664;BME280;13522;50.018;20.014;2023-04-25T04:30:35;97748.62;;;10.23;100.00
25664;BME280;13522;50.018;20.014;2023-04-25T04:33:48;97761.57;;;10.26;100.00
25664;BME280;13522;50.018;20.014;2023-04-25T04:37:01;97764.23;;;10.26;100.00
25664;BME280;13522;50.018;20.014;2023-04-25T04:40:15;97765.70;;;10.28;100.00
25664;BME280;13522;50.018;20.014;2023-04-25T04:43:32;97765.55;;;10.30;100.00
25664;BME280;13522;50.018;20.014;2023-04-25T04:46:47;97769.85;;;10.31;100.00
25664;BME280;13522;50.018;20.014;2023-04-25T04:50:02;97770.34;;;10.26;100.00
25664;BME280;13522;50.018;20.014;2023-04-25T04:53:34;97777.49;;;10.26;100.00
25664;BME280;13522;50.018;20.014;2023-04-25T04:56:53;97772.50;;;10.31;100.00
25664;BME280;13522;50.018;20.014;2023-04-25T05:00:16;97770.86;;;10.30;100.00
25664;BME280;13522;50.018;20.014;2023-04-25T05:03:47;97771.17;;;10.27;100.00
25664;BME280;13522;50.018;20.014;2023-04-25T05:07:02;97776.17;;;10.30;100.00
25664;BME280;13522;50.018;20.014;2023-04-25T05:10:20;97781.45;;;10.38;100.00
25664;BME280;13522;50.018;20.014;2023-04-25T05:13:35;97776.66;;;10.41;100.00
25664;BME280;13522;50.018;20.014;2023-04-25T05:16:52;97785.12;;;10.45;100.00
25664;BME280;13522;50.018;20.014;2023-04-25T05:20:16;97780.78;;;10.36;100.00
25664;BME280;13522;50.018;20.014;2023-04-25T05:23:45;97791.41;;;10.36;100.00
25664;BME280;13522;50.018;20.014;2023-04-25T05:27:03;97786.78;;;10.30;100.00
25664;BME280;13522;50.018;20.014;2023-04-25T05:30:35;97787.77;;;10.37;100.00
25664;BME280;13522;50.018;20.014;2023-04-25T05:33:50;97794.58;;;10.48;100.00
25664;BME280;13522;50.018;20.014;2023-04-25T05:37:04;97792.41;;;10.43;100.00
25664;BME280;13522;50.018;20.014;2023-04-25T05:40:18;97800.69;;;10.32;100.00
25664;BME280;13522;50.018;20.014;2023-04-25T05:43:39;97800.55;;;10.41;100.00
25664;BME280;13522;50.018;20.014;2023-04-25T05:47:04;97811.16;;;10.25;100.00
25664;BME280;13522;50.018;20.014;2023-04-25T05:50:30;97810.07;;;10.02;100.00
25664;BME280;13522;50.018;20.014;2023-04-25T05:53:44;97813.06;;;9.99;100.00
25664;BME280;13522;50.018;20.014;2023-04-25T05:56:58;97815.05;;;9.97;100.00
25664;BME280;13522;50.018;20.014;2023-04-25T06:00:15;97820.50;;;9.88;100.00
25664;BME280;13522;50.018;20.014;2023-04-25T06:03:29;97827.42;;;9.81;100.00
25664;BME280;13522;50.018;20.014;2023-04-25T06:06:41;97823.41;;;9.69;100.00
25664;BME280;13522;50.018;20.014;2023-04-25T06:09:54;97835.85;;;9.68;100.00
25664;BME280;13522;50.018;20.014;2023-04-25T06:13:07;97835.88;;;9.76;100.00
25664;BME280;13522;50.018;20.014;2023-04-25T06:16:19;97838.03;;;9.81;100.00
25664;BME280;13522;50.018;20.014;2023-04-25T06:19:32;97840.20;;;9.85;100.00
25664;BME280;13522;50.018;20.014;2023-04-25T06:22:47;97844.00;;;9.83;100.00
25664;BME280;13522;50.018;20.014;2023-04-25T06:26:01;97845.95;;;9.73;100.00
25664;BME280;13522;50.018;20.014;2023-04-25T06:29:15;97836.39;;;9.80;100.00
25664;BME280;13522;50.018;20.014;2023-04-25T06:32:28;97849.91;;;9.69;100.00
25664;BME280;13522;50.018;20.014;2023-04-25T06:35:40;97849.14;;;9.76;100.00
25664;BME280;13522;50.018;20.014;2023-04-25T06:38:54;97851.59;;;9.70;100.00
25664;BME280;13522;50.018;20.014;2023-04-25T06:42:07;97850.64;;;9.87;100.00
25664;BME280;13522;50.018;20.014;2023-04-25T06:45:21;97849.05;;;10.02;100.00
25664;BME280;13522;50.018;20.014;2023-04-25T06:48:33;97849.38;;;10.07;100.00
25664;BME280;13522;50.018;20.014;2023-04-25T06:51:46;97841.48;;;10.23;100.00
25664;BME280;13522;50.018;20.014;2023-04-25T06:54:59;97846.47;;;10.34;100.00
25664;BME280;13522;50.018;20.014;2023-04-25T06:58:14;97854.42;;;10.34;100.00
25664;BME280;13522;50.018;20.014;2023-04-25T07:01:34;97844.50;;;10.52;100.00
25664;BME280;13522;50.018;20.014;2023-04-25T07:04:49;97847.67;;;10.56;100.00
25664;BME280;13522;50.018;20.014;2023-04-25T07:08:03;97841.84;;;10.60;100.00
25664;BME280;13522;50.018;20.014;2023-04-25T07:11:16;97842.51;;;10.70;100.00
25664;BME280;13522;50.018;20.014;2023-04-25T07:14:29;97842.69;;;10.77;100.00
25664;BME280;13522;50.018;20.014;2023-04-25T07:17:41;97836.22;;;10.79;100.00
25664;BME280;13522;50.018;20.014;2023-04-25T07:20:54;97844.36;;;10.62;100.00
25664;BME280;13522;50.018;20.014;2023-04-25T07:24:08;97839.86;;;10.62;100.00
25664;BME280;13522;50.018;20.014;2023-04-25T07:27:22;97849.00;;;10.52;100.00
25664;BME280;13522;50.018;20.014;2023-04-25T07:30:36;97848.16;;;10.51;100.00
25664;BME280;13522;50.018;20.014;2023-04-25T07:33:48;97851.48;;;10.61;100.00
25664;BME280;13522;50.018;20.014;2023-04-25T07:37:01;97851.48;;;10.85;100.00
25664;BME280;13522;50.018;20.014;2023-04-25T07:40:15;97849.81;;;10.84;100.00
25664;BME280;13522;50.018;20.014;2023-04-25T07:43:30;97850.81;;;10.91;100.00
25664;BME280;13522;50.018;20.014;2023-04-25T07:46:44;97858.75;;;10.99;100.00
25664;BME280;13522;50.018;20.014;2023-04-25T07:49:56;97849.29;;;11.13;100.00
25664;BME280;13522;50.018;20.014;2023-04-25T07:53:09;97851.11;;;11.12;100.00
25664;BME280;13522;50.018;20.014;2023-04-25T07:56:24;97857.77;;;11.00;100.00
25664;BME280;13522;50.018;20.014;2023-04-25T07:59:38;97850.16;;;10.65;100.00
25664;BME280;13522;50.018;20.014;2023-04-25T08:02:52;97853.30;;;11.01;100.00
25664;BME280;13522;50.018;20.014;2023-04-25T08:06:05;97846.09;;;11.25;100.00
25664;BME280;13522;50.018;20.014;2023-04-25T08:09:20;97849.77;;;11.16;100.00
25664;BME280;13522;50.018;20.014;2023-04-25T08:12:34;97845.13;;;11.10;100.00
25664;BME280;13522;50.018;20.014;2023-04-25T08:15:47;97845.80;;;11.12;98.46
25664;BME280;13522;50.018;20.014;2023-04-25T08:19:01;97845.31;;;11.09;99.08
25664;BME280;13522;50.018;20.014;2023-04-25T08:22:13;97845.80;;;11.04;98.04
25664;BME280;13522;50.018;20.014;2023-04-25T08:25:27;97848.16;;;10.91;96.94
25664;BME280;13522;50.018;20.014;2023-04-25T08:28:40;97843.70;;;10.60;98.35
25664;BME280;13522;50.018;20.014;2023-04-25T08:31:53;97846.84;;;10.55;100.00
25664;BME280;13522;50.018;20.014;2023-04-25T08:35:09;97856.14;;;10.75;100.00
25664;BME280;13522;50.018;20.014;2023-04-25T08:38:22;97857.45;;;10.55;100.00
25664;BME280;13522;50.018;20.014;2023-04-25T08:41:35;97855.13;;;10.68;100.00
25664;BME280;13522;50.018;20.014;2023-04-25T08:44:49;97858.27;;;10.64;100.00
25664;BME280;13522;50.018;20.014;2023-04-25T08:48:05;97855.47;;;10.73;100.00
25664;BME280;13522;50.018;20.014;2023-04-25T08:51:23;97858.13;;;10.89;100.00
25664;BME280;13522;50.018;20.014;2023-04-25T08:54:39;97860.42;;;11.00;100.00
25664;BME280;13522;50.018;20.014;2023-04-25T08:57:53;97870.70;;;11.03;100.00
25664;BME280;13522;50.018;20.014;2023-04-25T09:01:07;97863.09;;;10.92;100.00
25664;BME280;13522;50.018;20.014;2023-04-25T09:04:22;97869.38;;;10.99;100.00
25664;BME280;13522;50.018;20.014;2023-04-25T09:07:35;97875.04;;;10.96;100.00
25664;BME280;13522;50.018;20.014;2023-04-25T09:10:48;97866.72;;;10.99;100.00
25664;BME280;13522;50.018;20.014;2023-04-25T09:14:18;97876.02;;;11.03;100.00
25664;BME280;13522;50.018;20.014;2023-04-25T09:17:44;97866.57;;;11.09;100.00
25664;BME280;13522;50.018;20.014;2023-04-25T09:21:04;97872.00;;;11.23;100.00
25664;BME280;13522;50.018;20.014;2023-04-25T09:24:21;97874.19;;;11.12;100.00
25664;BME280;13522;50.018;20.014;2023-04-25T09:27:55;97883.33;;;11.01;100.00
25664;BME280;13522;50.018;20.014;2023-04-25T09:31:11;97880.53;;;10.87;100.00
25664;BME280;13522;50.018;20.014;2023-04-25T09:34:27;97880.34;;;10.64;100.00
25664;BME280;13522;50.018;20.014;2023-04-25T09:37:41;97879.36;;;10.57;100.00
25664;BME280;13522;50.018;20.014;2023-04-25T09:41:13;97870.38;;;10.50;100.00
25664;BME280;13522;50.018;20.014;2023-04-25T09:44:26;97878.86;;;10.45;100.00
25664;BME280;13522;50.018;20.014;2023-04-25T09:47:40;97875.36;;;10.45;100.00
25664;BME280;13522;50.018;20.014;2023-04-25T09:51:07;97877.38;;;10.59;100.00
25664;BME280;13522;50.018;20.014;2023-04-25T09:54:22;97877.52;;;10.66;100.00
25664;BME280;13522;50.018;20.014;2023-04-25T09:57:37;97874.88;;;10.82;100.00
25664;BME280;13522;50.018;20.014;2023-04-25T10:00:50;97871.72;;;10.70;100.00
25664;BME280;13522;50.018;20.014;2023-04-25T10:04:06;97877.03;;;10.70;100.00
25664;BME280;13522;50.018;20.014;2023-04-25T10:07:26;97875.03;;;11.04;100.00
25664;BME280;13522;50.018;20.014;2023-04-25T10:10:41;97873.35;;;11.11;100.00
25664;BME280;13522;50.018;20.014;2023-04-25T10:13:55;97874.69;;;11.07;100.00
25664;BME280;13522;50.018;20.014;2023-04-25T10:17:08;97875.36;;;11.01;99.59
25664;BME280;13522;50.018;20.014;2023-04-25T10:20:23;97872.38;;;11.04;100.00
25664;BME280;13522;50.018;20.014;2023-04-25T10:23:36;97875.20;;;11.03;97.70
25664;BME280;13522;50.018;20.014;2023-04-25T10:26:49;97874.73;;;10.83;99.93
25664;BME280;13522;50.018;20.014;2023-04-25T10:30:08;97869.53;;;11.14;100.00
25664;BME280;13522;50.018;20.014;2023-04-25T10:33:30;97859.38;;;11.25;96.92
25664;BME280;13522;50.018;20.014;2023-04-25T10:36:50;97863.31;;;11.46;94.19
25664;BME280;13522;50.018;20.014;2023-04-25T10:40:11;97859.23;;;11.82;93.62
25664;BME280;13522;50.018;20.014;2023-04-25T10:43:39;97857.11;;;12.08;89.24
25664;BME280;13522;50.018;20.014;2023-04-25T10:47:05;97848.30;;;12.30;89.67
25664;BME280;13522;50.018;20.014;2023-04-25T10:50:18;97837.15;;;12.57;87.66
25664;BME280;13522;50.018;20.014;2023-04-25T10:53:34;97848.85;;;12.48;83.01
25664;BME280;13522;50.018;20.014;2023-04-25T10:56:48;97842.16;;;12.52;83.01
25664;BME280;13522;50.018;20.014;2023-04-25T11:00:04;97841.29;;;12.37;84.41
25664;BME280;13522;50.018;20.014;2023-04-25T11:03:25;97848.48;;;12.06;87.34
25664;BME280;13522;50.018;20.014;2023-04-25T11:06:45;97840.35;;;11.99;87.46
25664;BME280;13522;50.018;20.014;2023-04-25T11:10:05;97841.30;;;12.06;88.55
25664;BME280;13522;50.018;20.014;2023-04-25T11:13:21;97847.03;;;11.95;90.13
25664;BME280;13522;50.018;20.014;2023-04-25T11:16:33;97833.91;;;11.94;92.44
25664;BME280;13522;50.018;20.014;2023-04-25T11:19:49;97837.30;;;11.80;87.49
25664;BME280;13522;50.018;20.014;2023-04-25T11:23:02;97836.60;;;11.86;88.14
25664;BME280;13522;50.018;20.014;2023-04-25T11:26:14;97839.95;;;12.10;89.63
25664;BME280;13522;50.018;20.014;2023-04-25T11:29:28;97831.81;;;12.12;87.76
25664;BME280;13522;50.018;20.014;2023-04-25T11:32:42;97834.42;;;12.20;86.73
25664;BME280;13522;50.018;20.014;2023-04-25T11:35:56;97835.31;;;12.35;87.70
25664;BME280;13522;50.018;20.014;2023-04-25T11:39:08;97837.00;;;12.28;83.82
25664;BME280;13522;50.018;20.014;2023-04-25T11:42:21;97837.23;;;12.18;82.39
25664;BME280;13522;50.018;20.014;2023-04-25T11:45:34;97841.39;;;12.21;83.86
25664;BME280;13522;50.018;20.014;2023-04-25T11:48:48;97838.78;;;12.13;84.12
25664;BME280;13522;50.018;20.014;2023-04-25T11:52:01;97841.14;;;12.08;87.92
25664;BME280;13522;50.018;20.014;2023-04-25T11:55:15;97837.08;;;11.89;88.61
25664;BME280;13522;50.018;20.014;2023-04-25T11:58:29;97835.63;;;11.79;88.48
25664;BME280;13522;50.018;20.014;2023-04-25T12:01:47;97835.00;;;11.69;87.60
25664;BME280;13522;50.018;20.014;2023-04-25T12:05:02;97837.00;;;11.67;89.07
25664;BME280;13522;50.018;20.014;2023-04-25T12:08:21;97837.63;;;11.77;89.12
25664;BME280;13522;50.018;20.014;2023-04-25T12:11:40;97834.34;;;11.67;88.00
25664;BME280;13522;50.018;20.014;2023-04-25T12:14:53;97835.52;;;11.64;91.26
25664;BME280;13522;50.018;20.014;2023-04-25T12:18:06;97831.75;;;11.51;93.80
25664;BME280;13522;50.018;20.014;2023-04-25T12:21:18;97837.39;;;11.48;97.57
25664;BME280;13522;50.018;20.014;2023-04-25T12:24:34;97837.23;;;11.41;98.27
25664;BME280;13522;50.018;20.014;2023-04-25T12:27:46;97833.72;;;11.57;98.00
25664;BME280;13522;50.018;20.014;2023-04-25T12:31:00;97840.17;;;11.62;90.82
25664;BME280;13522;50.018;20.014;2023-04-25T12:34:13;97836.31;;;11.73;94.45
25664;BME280;13522;50.018;20.014;2023-04-25T12:37:26;97836.67;;;11.70;93.81
25664;BME280;13522;50.018;20.014;2023-04-25T12:40:38;97845.06;;;11.43;90.70
25664;BME280;13522;50.018;20.014;2023-04-25T12:43:51;97851.06;;;11.37;93.93
25664;BME280;13522;50.018;20.014;2023-04-25T12:47:03;97846.62;;;11.21;96.55
25664;BME280;13522;50.018;20.014;2023-04-25T12:50:17;97847.98;;;11.01;100.00
25664;BME280;13522;50.018;20.014;2023-04-25T12:53:29;97843.52;;;10.85;90.11
25664;BME280;13522;50.018;20.014;2023-04-25T12:56:43;97849.14;;;10.90;90.26
25664;BME280;13522;50.018;20.014;2023-04-25T12:59:56;97849.81;;;10.68;97.80
25664;BME280;13522;50.018;20.014;2023-04-25T13:03:10;97851.48;;;10.61;99.92
25664;BME280;13522;50.018;20.014;2023-04-25T13:06:23;97854.14;;;10.61;100.00
25664;BME280;13522;50.018;20.014;2023-04-25T13:09:35;97852.16;;;10.71;100.00
25664;BME280;13522;50.018;20.014;2023-04-25T13:12:48;97849.14;;;10.90;100.00
25664;BME280;13522;50.018;20.014;2023-04-25T13:16:00;97855.78;;;10.94;100.00
25664;BME280;13522;50.018;20.014;2023-04-25T13:19:13;97850.78;;;10.99;99.25
25664;BME280;13522;50.018;20.014;2023-04-25T13:22:25;97853.78;;;10.96;98.33
25664;BME280;13522;50.018;20.014;2023-04-25T13:25:38;97848.13;;;10.99;95.27
25664;BME280;13522;50.018;20.014;2023-04-25T13:28:50;97854.63;;;10.81;97.69
25664;BME280;13522;50.018;20.014;2023-04-25T13:32:03;97849.81;;;10.68;99.46
25664;BME280;13522;50.018;20.014;2023-04-25T13:35:16;97839.54;;;10.65;96.51
25664;BME280;13522;50.018;20.014;2023-04-25T13:38:28;97849.64;;;10.70;97.69
25664;BME280;13522;50.018;20.014;2023-04-25T13:41:41;97859.59;;;10.68;97.99
25664;BME280;13522;50.018;20.014;2023-04-25T13:44:53;97859.94;;;10.65;99.73
25664;BME280;13522;50.018;20.014;2023-04-25T13:48:06;97861.09;;;10.62;100.00
25664;BME280;13522;50.018;20.014;2023-04-25T13:51:18;97847.83;;;10.70;100.00
25664;BME280;13522;50.018;20.014;2023-04-25T13:54:32;97852.81;;;10.81;100.00
25664;BME280;13522;50.018;20.014;2023-04-25T13:57:44;97852.46;;;10.92;98.45
25664;BME280;13522;50.018;20.014;2023-04-25T14:00:56;97851.13;;;11.04;100.00
25664;BME280;13522;50.018;20.014;2023-04-25T14:04:09;97851.09;;;11.20;100.00
25664;BME280;13522;50.018;20.014;2023-04-25T14:07:22;97844.88;;;11.44;100.00
25664;BME280;13522;50.018;20.014;2023-04-25T14:10:35;97847.06;;;11.41;97.63
25664;BME280;13522;50.018;20.014;2023-04-25T14:13:48;97835.66;;;11.63;94.96
25664;BME280;13522;50.018;20.014;2023-04-25T14:17:01;97840.68;;;11.58;92.40
25664;BME280;13522;50.018;20.014;2023-04-25T14:20:13;97849.97;;;11.62;90.56
25664;BME280;13522;50.018;20.014;2023-04-25T14:23:27;97851.29;;;11.74;93.37
25664;BME280;13522;50.018;20.014;2023-04-25T14:26:39;97849.47;;;11.74;87.78
25664;BME280;13522;50.018;20.014;2023-04-25T14:29:52;97849.31;;;11.68;85.69
25664;BME280;13522;50.018;20.014;2023-04-25T14:33:04;97859.95;;;11.68;91.59
25664;BME280;13522;50.018;20.014;2023-04-25T14:36:16;97855.97;;;11.56;93.98
25664;BME280;13522;50.018;20.014;2023-04-25T14:39:29;97851.14;;;11.59;90.03
25664;BME280;13522;50.018;20.014;2023-04-25T14:42:41;97853.97;;;11.58;91.37
25664;BME280;13522;50.018;20.014;2023-04-25T14:45:54;97855.86;;;11.33;91.45
25664;BME280;13522;50.018;20.014;2023-04-25T14:49:08;97863.71;;;11.26;93.89
25664;BME280;13522;50.018;20.014;2023-04-25T14:52:20;97853.77;;;11.12;92.59
25664;BME280;13522;50.018;20.014;2023-04-25T14:55:33;97854.25;;;11.16;93.15
25664;BME280;13522;50.018;20.014;2023-04-25T14:58:49;97857.07;;;11.22;93.37
25664;BME280;13522;50.018;20.014;2023-04-25T15:02:01;97865.39;;;11.03;92.47
25664;BME280;13522;50.018;20.014;2023-04-25T15:05:14;97856.62;;;10.95;78.98
25664;BME280;13522;50.018;20.014;2023-04-25T15:08:27;97857.09;;;11.06;85.14
25664;BME280;13522;50.018;20.014;2023-04-25T15:11:41;97855.41;;;11.13;83.49
25664;BME280;13522;50.018;20.014;2023-04-25T15:14:54;97862.05;;;11.17;80.04
25664;BME280;13522;50.018;20.014;2023-04-25T15:18:08;97859.75;;;11.06;77.72
25664;BME280;13522;50.018;20.014;2023-04-25T15:21:20;97866.89;;;10.98;79.03
25664;BME280;13522;50.018;20.014;2023-04-25T15:24:32;97863.09;;;10.92;79.17
25664;BME280;13522;50.018;20.014;2023-04-25T15:27:45;97866.41;;;10.94;78.64
25664;BME280;13522;50.018;20.014;2023-04-25T15:30:59;97867.56;;;11.00;81.07
25664;BME280;13522;50.018;20.014;2023-04-25T15:34:12;97869.05;;;11.02;79.47
25664;BME280;13522;50.018;20.014;2023-04-25T15:37:24;97871.72;;;11.02;79.47
25664;BME280;13522;50.018;20.014;2023-04-25T15:40:36;97872.02;;;11.07;80.62
25664;BME280;13522;50.018;20.014;2023-04-25T15:43:49;97867.72;;;11.14;80.50
25664;BME280;13522;50.018;20.014;2023-04-25T15:47:02;97865.22;;;11.21;81.75
25664;BME280;13522;50.018;20.014;2023-04-25T15:50:15;97853.73;;;11.28;80.82
25664;BME280;13522;50.018;20.014;2023-04-25T15:53:28;97860.20;;;11.34;82.16
25664;BME280;13522;50.018;20.014;2023-04-25T15:56:40;97853.36;;;11.40;81.07
25664;BME280;13522;50.018;20.014;2023-04-25T15:59:52;97859.82;;;11.45;79.89
25664;BME280;13522;50.018;20.014;2023-04-25T16:03:05;97851.82;;;11.53;81.96
25664;BME280;13522;50.018;20.014;2023-04-25T16:06:17;97857.16;;;11.45;80.34
25664;BME280;13522;50.018;20.014;2023-04-25T16:09:31;97850.02;;;11.46;80.19
25664;BME280;13522;50.018;20.014;2023-04-25T16:12:44;97856.84;;;11.48;82.08
25664;BME280;13522;50.018;20.014;2023-04-25T16:15:57;97854.36;;;11.47;80.50
25664;BME280;13522;50.018;20.014;2023-04-25T16:19:09;97859.03;;;11.37;79.59
25664;BME280;13522;50.018;20.014;2023-04-25T16:22:21;97854.05;;;11.33;78.90
25664;BME280;13522;50.018;20.014;2023-04-25T16:25:34;97859.36;;;11.33;79.73
25664;BME280;13522;50.018;20.014;2023-04-25T16:28:48;97859.70;;;11.39;80.70
25664;BME280;13522;50.018;20.014;2023-04-25T16:32:00;97857.19;;;11.37;79.69
25664;BME280;13522;50.018;20.014;2023-04-25T16:35:13;97869.67;;;11.37;80.47
25664;BME280;13522;50.018;20.014;2023-04-25T16:38:26;97865.67;;;11.41;82.09
25664;BME280;13522;50.018;20.014;2023-04-25T16:41:38;97869.97;;;11.42;82.33
25664;BME280;13522;50.018;20.014;2023-04-25T16:44:51;97869.20;;;11.25;79.78
25664;BME280;13522;50.018;20.014;2023-04-25T16:48:04;97873.20;;;11.21;80.28
25664;BME280;13522;50.018;20.014;2023-04-25T16:51:16;97880.33;;;11.20;81.45